sensor_id;sensor_type;location;lat;lon;timestamp;pressure;altitude;pressure_sealevel;temperature;humidity
9746;BME280;4912;50.836;12.958;2023-07-13T00:00:04;97556.63;;;22.54;61.11
9746;BME280;4912;50.836;12.958;2023-07-13T00:02:40;97567.50;;;22.50;61.92
9746;BME280;4912;50.836;12.958;2023-07-13T00:05:11;97567.78;;;22.38;63.12
9746;BME280;4912;50.836;12.958;2023-07-13T00:07:42;97571.38;;;22.39;62.62
9746;BME280;4912;50.836;12.958;2023-07-13T00:10:16;97559.09;;;22.29;63.53
9746;BME280;4912;50.836;12.958;2023-07-13T00:12:50;97556.88;;;22.35;64.18
9746;BME280;4912;50.836;12.958;2023-07-13T00:15:24;97550.69;;;22.36;65.50
9746;BME280;4912;50.836;12.958;2023-07-13T00:17:59;97545.59;;;22.35;65.44
9746;BME280;4912;50.836;12.958;2023-07-13T00:20:29;97546.03;;;22.46;65.17
9746;BME280;4912;50.836;12.958;2023-07-13T00:23:00;97557.91;;;22.53;64.71
9746;BME280;4912;50.836;12.958;2023-07-13T00:25:31;97557.91;;;22.53;63.98
9746;BME280;4912;50.836;12.958;2023-07-13T00:28:04;97556.97;;;22.50;62.66
9746;BME280;4912;50.836;12.958;2023-07-13T00:30:35;97553.59;;;22.52;63.83
9746;BME280;4912;50.836;12.958;2023-07-13T00:33:06;97557.38;;;22.54;63.20
9746;BME280;4912;50.836;12.958;2023-07-13T00:35:44;97558.53;;;22.59;63.16
9746;BME280;4912;50.836;12.958;2023-07-13T00:38:14;97571.09;;;22.58;63.37
9746;BME280;4912;50.836;12.958;2023-07-13T00:40:46;97575.81;;;22.55;63.37
9746;BME280;4912;50.836;12.958;2023-07-13T00:43:20;97579.19;;;22.54;62.65
9746;BME280;4912;50.836;12.958;2023-07-13T00:46:22;97576.00;;;22.57;62.98
9746;BME280;4912;50.836;12.958;2023-07-13T00:48:58;97571.63;;;22.49;63.21
9746;BME280;4912;50.836;12.958;2023-07-13T00:51:33;97573.91;;;22.50;62.91
9746;BME280;4912;50.836;12.958;2023-07-13T00:54:11;97567.50;;;22.50;61.99
9746;BME280;4912;50.836;12.958;2023-07-13T00:56:45;97570.72;;;22.54;62.56
9746;BME280;4912;50.836;12.958;2023-07-13T00:59:21;97558.72;;;22.61;64.17
9746;BME280;4912;50.836;12.958;2023-07-13T01:01:52;97545.38;;;22.61;64.25
9746;BME280;4912;50.836;12.958;2023-07-13T01:04:24;97536.72;;;22.59;63.95
9746;BME280;4912;50.836;12.958;2023-07-13T01:06:55;97530.53;;;22.61;64.23
9746;BME280;4912;50.836;12.958;2023-07-13T01:09:27;97533.13;;;22.59;64.09
9746;BME280;4912;50.836;12.958;2023-07-13T01:11:58;97524.88;;;22.61;64.24
9746;BME280;4912;50.836;12.958;2023-07-13T01:14:32;97531.63;;;22.58;64.30
9746;BME280;4912;50.836;12.958;2023-07-13T01:17:04;97544.38;;;22.51;65.44
9746;BME280;4912;50.836;12.958;2023-07-13T01:19:36;97530.59;;;22.40;64.23
9746;BME280;4912;50.836;12.958;2023-07-13T01:22:15;97529.84;;;22.39;65.36
9746;BME280;4912;50.836;12.958;2023-07-13T01:24:47;97531.44;;;22.27;65.24
9746;BME280;4912;50.836;12.958;2023-07-13T01:27:22;97535.28;;;22.09;67.22
9746;BME280;4912;50.836;12.958;2023-07-13T01:29:53;97536.59;;;22.08;67.47
9746;BME280;4912;50.836;12.958;2023-07-13T01:32:29;97545.00;;;22.00;67.32
9746;BME280;4912;50.836;12.958;2023-07-13T01:35:01;97553.44;;;22.00;66.39
9746;BME280;4912;50.836;12.958;2023-07-13T01:37:35;97556.34;;;22.08;65.69
9746;BME280;4912;50.836;12.958;2023-07-13T01:40:07;97554.41;;;22.03;65.23
9746;BME280;4912;50.836;12.958;2023-07-13T01:42:39;97535.09;;;22.07;65.92
9746;BME280;4912;50.836;12.958;2023-07-13T01:45:09;97531.38;;;22.12;64.47
9746;BME280;4912;50.836;12.958;2023-07-13T01:47:40;97537.81;;;22.20;64.07
9746;BME280;4912;50.836;12.958;2023-07-13T01:50:12;97540.28;;;22.24;63.30
9746;BME280;4912;50.836;12.958;2023-07-13T01:52:45;97541.41;;;22.28;63.26
9746;BME280;4912;50.836;12.958;2023-07-13T01:55:18;97547.22;;;22.23;62.11
9746;BME280;4912;50.836;12.958;2023-07-13T01:57:49;97548.13;;;22.18;62.49
9746;BME280;4912;50.836;12.958;2023-07-13T02:00:20;97548.50;;;22.22;63.42
9746;BME280;4912;50.836;12.958;2023-07-13T02:02:52;97546.66;;;22.24;64.13
9746;BME280;4912;50.836;12.958;2023-07-13T02:05:23;97551.91;;;22.20;64.69
9746;BME280;4912;50.836;12.958;2023-07-13T02:07:59;97566.88;;;22.15;65.29
9746;BME280;4912;50.836;12.958;2023-07-13T02:10:30;97557.41;;;22.05;66.09
9746;BME280;4912;50.836;12.958;2023-07-13T02:13:01;97552.00;;;22.07;66.04
9746;BME280;4912;50.836;12.958;2023-07-13T02:15:31;97556.38;;;22.16;65.80
9746;BME280;4912;50.836;12.958;2023-07-13T02:18:02;97552.63;;;22.21;65.97
9746;BME280;4912;50.836;12.958;2023-07-13T02:20:33;97554.31;;;22.16;65.68
9746;BME280;4912;50.836;12.958;2023-07-13T02:23:06;97554.06;;;22.07;66.11
9746;BME280;4912;50.836;12.958;2023-07-13T02:25:37;97562.72;;;22.09;66.43
9746;BME280;4912;50.836;12.958;2023-07-13T02:28:08;97550.34;;;21.91;66.83
9746;BME280;4912;50.836;12.958;2023-07-13T02:30:39;97557.56;;;21.99;66.27
9746;BME280;4912;50.836;12.958;2023-07-13T02:33:09;97553.84;;;21.84;67.31
9746;BME280;4912;50.836;12.958;2023-07-13T02:35:40;97548.84;;;21.90;67.61
9746;BME280;4912;50.836;12.958;2023-07-13T02:38:13;97551.72;;;21.97;67.11
9746;BME280;4912;50.836;12.958;2023-07-13T02:40:44;97545.97;;;22.03;66.97
9746;BME280;4912;50.836;12.958;2023-07-13T02:43:19;97554.22;;;22.01;67.54
9746;BME280;4912;50.836;12.958;2023-07-13T02:45:49;97557.34;;;21.97;68.07
9746;BME280;4912;50.836;12.958;2023-07-13T02:48:20;97569.06;;;22.01;67.94
9746;BME280;4912;50.836;12.958;2023-07-13T02:50:50;97562.66;;;22.01;68.24
9746;BME280;4912;50.836;12.958;2023-07-13T02:53:23;97556.81;;;21.99;68.15
9746;BME280;4912;50.836;12.958;2023-07-13T02:55:54;97557.78;;;22.01;68.14
9746;BME280;4912;50.836;12.958;2023-07-13T02:58:24;97562.25;;;21.97;68.71
9746;BME280;4912;50.836;12.958;2023-07-13T03:00:55;97576.91;;;21.95;68.44
9746;BME280;4912;50.836;12.958;2023-07-13T03:03:26;97579.75;;;21.82;69.13
9746;BME280;4912;50.836;12.958;2023-07-13T03:05:59;97578.22;;;21.81;68.98
9746;BME280;4912;50.836;12.958;2023-07-13T03:08:43;97579.41;;;21.86;68.32
9746;BME280;4912;50.836;12.958;2023-07-13T03:11:18;97582.78;;;21.84;68.83
9746;BME280;4912;50.836;12.958;2023-07-13T03:13:57;97589.03;;;21.70;69.15
9746;BME280;4912;50.836;12.958;2023-07-13T03:16:31;97586.25;;;21.56;68.77
9746;BME280;4912;50.836;12.958;2023-07-13T03:19:02;97581.81;;;21.61;69.17
9746;BME280;4912;50.836;12.958;2023-07-13T03:21:33;97591.56;;;21.60;68.92
9746;BME280;4912;50.836;12.958;2023-07-13T03:24:06;97596.84;;;21.63;70.09
9746;BME280;4912;50.836;12.958;2023-07-13T03:26:38;97597.59;;;21.43;68.69
9746;BME280;4912;50.836;12.958;2023-07-13T03:29:09;97600.59;;;21.45;68.94
9746;BME280;4912;50.836;12.958;2023-07-13T03:31:39;97588.94;;;21.41;69.36
9746;BME280;4912;50.836;12.958;2023-07-13T03:34:10;97594.84;;;21.51;68.58
9746;BME280;4912;50.836;12.958;2023-07-13T03:36:41;97605.44;;;21.58;69.62
9746;BME280;4912;50.836;12.958;2023-07-13T03:39:15;97598.38;;;21.64;70.18
9746;BME280;4912;50.836;12.958;2023-07-13T03:41:53;97596.53;;;21.67;71.09
9746;BME280;4912;50.836;12.958;2023-07-13T03:44:23;97599.53;;;21.69;71.88
9746;BME280;4912;50.836;12.958;2023-07-13T03:46:56;97605.25;;;21.77;71.86
9746;BME280;4912;50.836;12.958;2023-07-13T03:49:27;97607.16;;;21.82;71.51
9746;BME280;4912;50.836;12.958;2023-07-13T03:51:57;97613.00;;;21.84;71.76
9746;BME280;4912;50.836;12.958;2023-07-13T03:54:30;97608.59;;;21.75;72.52
9746;BME280;4912;50.836;12.958;2023-07-13T03:57:02;97609.91;;;21.74;72.52
9746;BME280;4912;50.836;12.958;2023-07-13T03:59:35;97615.88;;;21.71;73.18
9746;BME280;4912;50.836;12.958;2023-07-13T04:02:08;97615.25;;;21.64;73.53
9746;BME280;4912;50.836;12.958;2023-07-13T04:04:39;97617.94;;;21.70;72.92
9746;BME280;4912;50.836;12.958;2023-07-13T04:07:09;97628.13;;;21.73;73.01
9746;BME280;4912;50.836;12.958;2023-07-13T04:09:42;97633.31;;;21.69;72.65
9746;BME280;4912;50.836;12.958;2023-07-13T04:12:13;97624.31;;;21.71;72.17
9746;BME280;4912;50.836;12.958;2023-07-13T04:14:44;97626.59;;;21.72;72.32
9746;BME280;4912;50.836;12.958;2023-07-13T04:17:14;97634.06;;;21.70;72.16
9746;BME280;4912;50.836;12.958;2023-07-13T04:19:45;97630.50;;;21.69;72.31
9746;BME280;4912;50.836;12.958;2023-07-13T04:22:16;97616.56;;;21.63;72.10
9746;BME280;4912;50.836;12.958;2023-07-13T04:24:49;97613.41;;;21.67;72.13
9746;BME280;4912;50.836;12.958;2023-07-13T04:27:20;97608.94;;;21.72;72.27
9746;BME280;4912;50.836;12.958;2023-07-13T04:29:52;97615.88;;;21.71;72.05
9746;BME280;4912;50.836;12.958;2023-07-13T04:32:22;97608.19;;;21.71;72.03
9746;BME280;4912;50.836;12.958;2023-07-13T04:34:52;97611.34;;;21.68;72.35
9746;BME280;4912;50.836;12.958;2023-07-13T04:37:24;97609.41;;;21.62;72.08
9746;BME280;4912;50.836;12.958;2023-07-13T04:39:59;97625.91;;;21.58;71.32
9746;BME280;4912;50.836;12.958;2023-07-13T04:42:30;97620.47;;;21.60;71.96
9746;BME280;4912;50.836;12.958;2023-07-13T04:45:01;97627.00;;;21.55;72.34
9746;BME280;4912;50.836;12.958;2023-07-13T04:47:32;97625.19;;;21.45;73.45
9746;BME280;4912;50.836;12.958;2023-07-13T04:50:03;97622.06;;;21.35;73.78
9746;BME280;4912;50.836;12.958;2023-07-13T04:52:35;97638.97;;;21.35;72.95
9746;BME280;4912;50.836;12.958;2023-07-13T04:55:08;97638.72;;;21.46;72.73
9746;BME280;4912;50.836;12.958;2023-07-13T04:57:39;97639.63;;;21.62;72.56
9746;BME280;4912;50.836;12.958;2023-07-13T05:00:11;97642.00;;;21.71;72.31
9746;BME280;4912;50.836;12.958;2023-07-13T05:02:44;97642.34;;;21.68;73.02
9746;BME280;4912;50.836;12.958;2023-07-13T05:05:15;97647.63;;;21.71;72.21
9746;BME280;4912;50.836;12.958;2023-07-13T05:07:46;97652.53;;;21.57;71.88
9746;BME280;4912;50.836;12.958;2023-07-13T05:10:19;97650.06;;;21.54;71.88
9746;BME280;4912;50.836;12.958;2023-07-13T05:12:49;97658.84;;;21.50;70.95
9746;BME280;4912;50.836;12.958;2023-07-13T05:15:20;97658.97;;;21.45;70.55
9746;BME280;4912;50.836;12.958;2023-07-13T05:17:52;97653.44;;;21.39;70.19
9746;BME280;4912;50.836;12.958;2023-07-13T05:20:23;97655.81;;;21.48;70.54
9746;BME280;4912;50.836;12.958;2023-07-13T05:22:54;97659.16;;;21.60;71.17
9746;BME280;4912;50.836;12.958;2023-07-13T05:25:28;97658.47;;;21.67;71.08
9746;BME280;4912;50.836;12.958;2023-07-13T05:27:58;97659.09;;;21.73;70.66
9746;BME280;4912;50.836;12.958;2023-07-13T05:30:29;97657.84;;;21.82;70.96
9746;BME280;4912;50.836;12.958;2023-07-13T05:33:01;97647.84;;;21.94;70.54
9746;BME280;4912;50.836;12.958;2023-07-13T05:35:31;97650.31;;;21.97;69.73
9746;BME280;4912;50.836;12.958;2023-07-13T05:38:01;97650.63;;;22.07;69.54
9746;BME280;4912;50.836;12.958;2023-07-13T05:40:34;97659.88;;;21.94;68.19
9746;BME280;4912;50.836;12.958;2023-07-13T05:43:05;97659.75;;;22.00;68.59
9746;BME280;4912;50.836;12.958;2023-07-13T05:45:36;97661.28;;;22.01;68.49
9746;BME280;4912;50.836;12.958;2023-07-13T05:48:06;97670.16;;;21.92;68.88
9746;BME280;4912;50.836;12.958;2023-07-13T05:50:37;97662.16;;;22.17;68.46
9746;BME280;4912;50.836;12.958;2023-07-13T05:53:07;97662.44;;;22.26;67.50
9746;BME280;4912;50.836;12.958;2023-07-13T05:55:44;97664.69;;;22.49;65.77
9746;BME280;4912;50.836;12.958;2023-07-13T05:58:17;97667.56;;;22.35;65.90
9746;BME280;4912;50.836;12.958;2023-07-13T06:00:48;97670.81;;;22.39;66.05
9746;BME280;4912;50.836;12.958;2023-07-13T06:03:28;97671.00;;;22.41;63.55
9746;BME280;4912;50.836;12.958;2023-07-13T06:05:59;97677.44;;;22.70;63.56
9746;BME280;4912;50.836;12.958;2023-07-13T06:08:30;97677.84;;;22.74;62.26
9746;BME280;4912;50.836;12.958;2023-07-13T06:11:06;97680.03;;;22.89;61.64
9746;BME280;4912;50.836;12.958;2023-07-13T06:13:38;97681.41;;;23.03;60.87
9746;BME280;4912;50.836;12.958;2023-07-13T06:16:08;97677.13;;;23.10;61.50
9746;BME280;4912;50.836;12.958;2023-07-13T06:18:39;97676.56;;;23.11;61.40
9746;BME280;4912;50.836;12.958;2023-07-13T06:21:12;97679.00;;;23.07;61.20
9746;BME280;4912;50.836;12.958;2023-07-13T06:23:46;97675.84;;;23.18;60.58
9746;BME280;4912;50.836;12.958;2023-07-13T06:26:20;97687.91;;;23.19;60.31
9746;BME280;4912;50.836;12.958;2023-07-13T06:28:51;97693.59;;;23.26;60.03
9746;BME280;4912;50.836;12.958;2023-07-13T06:31:22;97686.66;;;23.35;58.79
9746;BME280;4912;50.836;12.958;2023-07-13T06:33:53;97688.88;;;23.65;58.49
9746;BME280;4912;50.836;12.958;2023-07-13T06:36:23;97682.16;;;23.98;57.01
9746;BME280;4912;50.836;12.958;2023-07-13T06:38:54;97684.59;;;23.94;54.50
9746;BME280;4912;50.836;12.958;2023-07-13T06:41:27;97686.81;;;23.65;53.30
9746;BME280;4912;50.836;12.958;2023-07-13T06:43:58;97685.91;;;23.78;53.42
9746;BME280;4912;50.836;12.958;2023-07-13T06:46:29;97693.47;;;23.98;53.82
9746;BME280;4912;50.836;12.958;2023-07-13T06:48:59;97689.69;;;23.88;52.61
9746;BME280;4912;50.836;12.958;2023-07-13T06:51:30;97700.06;;;23.93;52.86
9746;BME280;4912;50.836;12.958;2023-07-13T06:54:00;97697.66;;;24.13;51.33
9746;BME280;4912;50.836;12.958;2023-07-13T06:56:33;97701.44;;;24.23;50.10
9746;BME280;4912;50.836;12.958;2023-07-13T06:59:04;97698.66;;;24.61;50.45
9746;BME280;4912;50.836;12.958;2023-07-13T07:01:34;97702.97;;;24.84;48.71
9746;BME280;4912;50.836;12.958;2023-07-13T07:04:07;97703.31;;;25.11;47.35
9746;BME280;4912;50.836;12.958;2023-07-13T07:06:38;97699.34;;;25.07;47.14
9746;BME280;4912;50.836;12.958;2023-07-13T07:09:08;97700.44;;;25.26;46.22
9746;BME280;4912;50.836;12.958;2023-07-13T07:11:42;97698.38;;;25.27;45.51
9746;BME280;4912;50.836;12.958;2023-07-13T07:14:28;97698.44;;;25.59;46.86
9746;BME280;4912;50.836;12.958;2023-07-13T07:17:00;97695.38;;;25.73;45.85
9746;BME280;4912;50.836;12.958;2023-07-13T07:19:30;97695.31;;;25.80;45.51
9746;BME280;4912;50.836;12.958;2023-07-13T07:22:01;97702.41;;;25.96;44.92
9746;BME280;4912;50.836;12.958;2023-07-13T07:24:32;97697.56;;;26.14;44.34
9746;BME280;4912;50.836;12.958;2023-07-13T07:27:06;97702.97;;;26.27;43.93
9746;BME280;4912;50.836;12.958;2023-07-13T07:29:39;97705.06;;;26.52;44.12
9746;BME280;4912;50.836;12.958;2023-07-13T07:32:30;97709.06;;;26.73;42.43
9746;BME280;4912;50.836;12.958;2023-07-13T07:35:06;97703.06;;;26.86;41.52
9746;BME280;4912;50.836;12.958;2023-07-13T07:37:37;97702.16;;;26.84;40.29
9746;BME280;4912;50.836;12.958;2023-07-13T07:40:11;97702.88;;;27.09;41.13
9746;BME280;4912;50.836;12.958;2023-07-13T07:42:47;97698.84;;;27.47;38.95
9746;BME280;4912;50.836;12.958;2023-07-13T07:45:18;97694.88;;;27.77;38.40
9746;BME280;4912;50.836;12.958;2023-07-13T07:47:48;97698.53;;;27.87;37.91
9746;BME280;4912;50.836;12.958;2023-07-13T07:50:19;97704.88;;;27.68;38.08
9746;BME280;4912;50.836;12.958;2023-07-13T07:52:50;97697.84;;;27.52;39.08
9746;BME280;4912;50.836;12.958;2023-07-13T07:55:20;97691.91;;;28.01;40.45
9746;BME280;4912;50.836;12.958;2023-07-13T07:57:57;97696.34;;;28.22;38.29
9746;BME280;4912;50.836;12.958;2023-07-13T08:00:31;97700.31;;;28.36;37.08
9746;BME280;4912;50.836;12.958;2023-07-13T08:03:05;97704.50;;;28.35;36.18
9746;BME280;4912;50.836;12.958;2023-07-13T08:05:39;97703.94;;;28.46;36.53
9746;BME280;4912;50.836;12.958;2023-07-13T08:08:22;97702.84;;;28.32;36.11
9746;BME280;4912;50.836;12.958;2023-07-13T08:10:53;97705.97;;;28.26;36.85
9746;BME280;4912;50.836;12.958;2023-07-13T08:13:30;97701.09;;;28.46;36.23
9746;BME280;4912;50.836;12.958;2023-07-13T08:16:03;97706.94;;;28.38;35.60
9746;BME280;4912;50.836;12.958;2023-07-13T08:18:35;97701.06;;;28.36;35.94
9746;BME280;4912;50.836;12.958;2023-07-13T08:21:08;97705.41;;;28.37;36.26
9746;BME280;4912;50.836;12.958;2023-07-13T08:23:39;97708.25;;;28.37;36.12
9746;BME280;4912;50.836;12.958;2023-07-13T08:26:10;97712.06;;;27.96;37.21
9746;BME280;4912;50.836;12.958;2023-07-13T08:28:43;97718.16;;;27.65;36.88
9746;BME280;4912;50.836;12.958;2023-07-13T08:31:13;97727.94;;;27.72;37.71
9746;BME280;4912;50.836;12.958;2023-07-13T08:33:44;97715.50;;;27.94;37.07
9746;BME280;4912;50.836;12.958;2023-07-13T08:36:16;97725.75;;;27.80;37.04
9746;BME280;4912;50.836;12.958;2023-07-13T08:38:47;97724.84;;;27.60;36.65
9746;BME280;4912;50.836;12.958;2023-07-13T08:41:18;97726.94;;;27.08;36.98
9746;BME280;4912;50.836;12.958;2023-07-13T08:43:57;97732.63;;;26.83;37.95
9746;BME280;4912;50.836;12.958;2023-07-13T08:46:34;97733.25;;;26.99;37.26
9746;BME280;4912;50.836;12.958;2023-07-13T08:49:13;97728.28;;;28.03;35.11
9746;BME280;4912;50.836;12.958;2023-07-13T08:51:48;97723.75;;;29.00;34.10
9746;BME280;4912;50.836;12.958;2023-07-13T08:54:24;97715.25;;;29.96;32.77
9746;BME280;4912;50.836;12.958;2023-07-13T08:57:03;97720.28;;;30.67;31.57
9746;BME280;4912;50.836;12.958;2023-07-13T08:59:44;97726.88;;;31.64;29.59
9746;BME280;4912;50.836;12.958;2023-07-13T09:02:26;97729.34;;;32.35;28.32
9746;BME280;4912;50.836;12.958;2023-07-13T09:05:02;97730.38;;;32.40;27.31
9746;BME280;4912;50.836;12.958;2023-07-13T09:07:46;97734.03;;;31.75;28.58
9746;BME280;4912;50.836;12.958;2023-07-13T09:10:30;97732.59;;;31.43;29.53
9746;BME280;4912;50.836;12.958;2023-07-13T09:13:14;97740.75;;;31.58;29.37
9746;BME280;4912;50.836;12.958;2023-07-13T09:15:53;97738.25;;;30.48;30.03
9746;BME280;4912;50.836;12.958;2023-07-13T09:18:30;97735.00;;;30.32;31.07
9746;BME280;4912;50.836;12.958;2023-07-13T09:21:08;97739.69;;;30.18;31.79
9746;BME280;4912;50.836;12.958;2023-07-13T09:23:41;97742.75;;;29.43;32.20
9746;BME280;4912;50.836;12.958;2023-07-13T09:26:14;97739.25;;;29.16;33.34
9746;BME280;4912;50.836;12.958;2023-07-13T09:28:50;97741.53;;;29.46;32.15
9746;BME280;4912;50.836;12.958;2023-07-13T09:31:32;97742.28;;;29.76;30.90
9746;BME280;4912;50.836;12.958;2023-07-13T09:34:09;97743.56;;;30.73;30.61
9746;BME280;4912;50.836;12.958;2023-07-13T09:36:41;97746.44;;;30.63;29.40
9746;BME280;4912;50.836;12.958;2023-07-13T09:39:14;97738.91;;;30.18;30.12
9746;BME280;4912;50.836;12.958;2023-07-13T09:41:49;97746.63;;;30.46;30.46
9746;BME280;4912;50.836;12.958;2023-07-13T09:44:29;97749.34;;;29.36;30.85
9746;BME280;4912;50.836;12.958;2023-07-13T09:47:12;97750.09;;;28.81;31.43
9746;BME280;4912;50.836;12.958;2023-07-13T09:49:46;97752.13;;;28.61;32.93
9746;BME280;4912;50.836;12.958;2023-07-13T09:52:17;97759.38;;;28.18;33.36
9746;BME280;4912;50.836;12.958;2023-07-13T09:54:50;97759.97;;;27.55;35.24
9746;BME280;4912;50.836;12.958;2023-07-13T09:57:27;97771.94;;;26.87;37.21
9746;BME280;4912;50.836;12.958;2023-07-13T10:00:22;97769.19;;;26.55;38.41
9746;BME280;4912;50.836;12.958;2023-07-13T10:03:05;97767.31;;;26.25;38.88
9746;BME280;4912;50.836;12.958;2023-07-13T10:05:49;97769.72;;;26.28;38.99
9746;BME280;4912;50.836;12.958;2023-07-13T10:08:23;97777.91;;;26.17;39.17
9746;BME280;4912;50.836;12.958;2023-07-13T10:10:59;97776.72;;;26.60;38.86
9746;BME280;4912;50.836;12.958;2023-07-13T10:13:34;97770.53;;;27.62;36.79
9746;BME280;4912;50.836;12.958;2023-07-13T10:16:07;97776.84;;;27.70;35.32
9746;BME280;4912;50.836;12.958;2023-07-13T10:18:46;97779.09;;;27.38;35.87
9746;BME280;4912;50.836;12.958;2023-07-13T10:21:19;97775.56;;;27.29;36.59
9746;BME280;4912;50.836;12.958;2023-07-13T10:24:09;97773.66;;;27.49;36.54
9746;BME280;4912;50.836;12.958;2023-07-13T10:26:52;97774.16;;;27.90;35.49
9746;BME280;4912;50.836;12.958;2023-07-13T10:29:35;97773.34;;;29.33;33.29
9746;BME280;4912;50.836;12.958;2023-07-13T10:32:09;97775.47;;;29.61;32.10
9746;BME280;4912;50.836;12.958;2023-07-13T10:34:46;97768.84;;;29.49;32.43
9746;BME280;4912;50.836;12.958;2023-07-13T10:37:22;97765.78;;;29.28;31.74
9746;BME280;4912;50.836;12.958;2023-07-13T10:39:56;97762.09;;;29.74;30.96
9746;BME280;4912;50.836;12.958;2023-07-13T10:42:32;97752.25;;;30.34;30.70
9746;BME280;4912;50.836;12.958;2023-07-13T10:45:13;97758.81;;;31.18;29.47
9746;BME280;4912;50.836;12.958;2023-07-13T10:47:45;97750.94;;;32.03;28.77
9746;BME280;4912;50.836;12.958;2023-07-13T10:50:22;97743.06;;;32.60;27.51
9746;BME280;4912;50.836;12.958;2023-07-13T10:52:55;97742.94;;;32.58;27.69
9746;BME280;4912;50.836;12.958;2023-07-13T10:55:40;97746.75;;;32.16;26.89
9746;BME280;4912;50.836;12.958;2023-07-13T10:58:15;97737.97;;;32.02;27.42
9746;BME280;4912;50.836;12.958;2023-07-13T11:00:53;97746.63;;;31.93;27.70
9746;BME280;4912;50.836;12.958;2023-07-13T11:03:28;97748.75;;;31.38;27.64
9746;BME280;4912;50.836;12.958;2023-07-13T11:06:15;97739.31;;;32.46;27.14
9746;BME280;4912;50.836;12.958;2023-07-13T11:08:55;97736.69;;;33.31;24.90
9746;BME280;4912;50.836;12.958;2023-07-13T11:11:34;97737.53;;;33.83;24.78
9746;BME280;4912;50.836;12.958;2023-07-13T11:14:31;97732.06;;;33.38;24.95
9746;BME280;4912;50.836;12.958;2023-07-13T11:17:24;97741.84;;;32.51;25.78
9746;BME280;4912;50.836;12.958;2023-07-13T11:20:21;97749.97;;;31.56;26.98
9746;BME280;4912;50.836;12.958;2023-07-13T11:25:58;97738.63;;;31.25;28.34
9746;BME280;4912;50.836;12.958;2023-07-13T11:28:31;97736.88;;;31.11;28.16
9746;BME280;4912;50.836;12.958;2023-07-13T11:31:13;97731.38;;;30.72;29.27
9746;BME280;4912;50.836;12.958;2023-07-13T11:33:56;97731.81;;;30.28;30.31
9746;BME280;4912;50.836;12.958;2023-07-13T11:36:31;97740.19;;;30.86;29.90
9746;BME280;4912;50.836;12.958;2023-07-13T11:39:23;97724.00;;;33.00;26.75
9746;BME280;4912;50.836;12.958;2023-07-13T11:42:00;97731.66;;;34.31;25.82
9746;BME280;4912;50.836;12.958;2023-07-13T11:44:33;97730.59;;;34.77;24.39
9746;BME280;4912;50.836;12.958;2023-07-13T11:47:09;97735.63;;;34.38;24.55
9746;BME280;4912;50.836;12.958;2023-07-13T11:49:43;97731.81;;;35.56;23.84
9746;BME280;4912;50.836;12.958;2023-07-13T11:52:17;97716.72;;;36.46;22.86
9746;BME280;4912;50.836;12.958;2023-07-13T11:54:54;97713.97;;;37.28;21.89
9746;BME280;4912;50.836;12.958;2023-07-13T11:57:29;97717.84;;;37.86;21.83
9746;BME280;4912;50.836;12.958;2023-07-13T12:00:09;97720.53;;;37.82;20.40
9746;BME280;4912;50.836;12.958;2023-07-13T12:02:47;97725.00;;;37.67;20.81
9746;BME280;4912;50.836;12.958;2023-07-13T12:05:20;97710.09;;;36.59;21.76
9746;BME280;4912;50.836;12.958;2023-07-13T12:07:52;97712.69;;;35.34;24.61
9746;BME280;4912;50.836;12.958;2023-07-13T12:10:27;97719.22;;;34.27;23.79
9746;BME280;4912;50.836;12.958;2023-07-13T12:13:01;97710.47;;;33.99;24.63
9746;BME280;4912;50.836;12.958;2023-07-13T12:15:38;97723.34;;;33.73;24.72
9746;BME280;4912;50.836;12.958;2023-07-13T12:18:12;97707.88;;;35.24;23.26
9746;BME280;4912;50.836;12.958;2023-07-13T12:20:46;97709.50;;;35.27;23.20
9746;BME280;4912;50.836;12.958;2023-07-13T12:23:23;97717.66;;;35.47;23.24
9746;BME280;4912;50.836;12.958;2023-07-13T12:26:03;97713.69;;;36.12;21.97
9746;BME280;4912;50.836;12.958;2023-07-13T12:28:38;97714.94;;;35.94;22.38
9746;BME280;4912;50.836;12.958;2023-07-13T12:31:24;97711.16;;;36.81;22.12
9746;BME280;4912;50.836;12.958;2023-07-13T12:34:01;97703.41;;;37.53;20.72
9746;BME280;4912;50.836;12.958;2023-07-13T12:36:35;97708.13;;;38.50;20.71
9746;BME280;4912;50.836;12.958;2023-07-13T12:39:14;97706.53;;;37.75;19.94
9746;BME280;4912;50.836;12.958;2023-07-13T12:41:50;97709.28;;;35.96;21.72
9746;BME280;4912;50.836;12.958;2023-07-13T12:44:27;97696.53;;;37.60;21.26
9746;BME280;4912;50.836;12.958;2023-07-13T12:47:04;97706.81;;;38.93;19.94
9746;BME280;4912;50.836;12.958;2023-07-13T12:49:42;97705.03;;;38.09;19.99
9746;BME280;4912;50.836;12.958;2023-07-13T12:52:16;97706.56;;;35.84;21.36
9746;BME280;4912;50.836;12.958;2023-07-13T12:54:55;97717.28;;;34.31;22.46
9746;BME280;4912;50.836;12.958;2023-07-13T12:57:38;97713.56;;;32.92;24.34
9746;BME280;4912;50.836;12.958;2023-07-13T13:00:22;97718.00;;;32.26;25.25
9746;BME280;4912;50.836;12.958;2023-07-13T13:02:56;97713.69;;;31.38;26.33
9746;BME280;4912;50.836;12.958;2023-07-13T13:05:49;97716.34;;;30.72;27.04
9746;BME280;4912;50.836;12.958;2023-07-13T13:08:20;97722.63;;;30.49;27.38
9746;BME280;4912;50.836;12.958;2023-07-13T13:10:50;97721.31;;;30.31;27.16
9746;BME280;4912;50.836;12.958;2023-07-13T13:13:24;97732.78;;;30.92;27.26
9746;BME280;4912;50.836;12.958;2023-07-13T13:15:55;97723.84;;;31.83;25.62
9746;BME280;4912;50.836;12.958;2023-07-13T13:18:26;97714.75;;;33.13;25.22
9746;BME280;4912;50.836;12.958;2023-07-13T13:20:56;97709.41;;;34.98;23.74
9746;BME280;4912;50.836;12.958;2023-07-13T13:23:27;97709.00;;;35.47;22.06
9746;BME280;4912;50.836;12.958;2023-07-13T13:25:59;97700.00;;;34.70;22.51
9746;BME280;4912;50.836;12.958;2023-07-13T13:28:32;97711.06;;;33.47;23.55
9746;BME280;4912;50.836;12.958;2023-07-13T13:31:02;97707.53;;;33.23;23.77
9746;BME280;4912;50.836;12.958;2023-07-13T13:33:33;97720.00;;;32.58;24.71
9746;BME280;4912;50.836;12.958;2023-07-13T13:36:07;97713.25;;;33.72;23.71
9746;BME280;4912;50.836;12.958;2023-07-13T13:38:42;97714.75;;;33.73;23.11
9746;BME280;4912;50.836;12.958;2023-07-13T13:41:14;97719.81;;;35.05;21.33
9746;BME280;4912;50.836;12.958;2023-07-13T13:43:47;97716.19;;;35.18;21.30
9746;BME280;4912;50.836;12.958;2023-07-13T13:46:20;97718.22;;;33.35;23.14
9746;BME280;4912;50.836;12.958;2023-07-13T13:48:52;97717.50;;;33.59;22.96